createdAt,value
2022-08-30T00:00:08.869Z,19.70
2022-08-30T00:02:37.885Z,19.66
2022-08-30T00:05:06.290Z,19.69
2022-08-30T00:07:34.589Z,19.73
2022-08-30T00:10:02.200Z,19.71
2022-08-30T00:12:30.301Z,19.74
2022-08-30T00:14:58.116Z,19.74
2022-08-30T00:17:26.506Z,19.70
2022-08-30T00:19:56.780Z,19.57
2022-08-30T00:22:24.581Z,19.53
2022-08-30T00:24:53.073Z,19.54
2022-08-30T00:27:20.636Z,19.55
2022-08-30T00:29:48.248Z,19.52
2022-08-30T00:32:16.358Z,19.48
2022-08-30T00:34:44.027Z,19.40
2022-08-30T00:37:13.145Z,19.33
2022-08-30T00:39:40.785Z,19.22
2022-08-30T00:42:09.004Z,19.01
2022-08-30T00:44:36.828Z,18.83
2022-08-30T00:47:04.937Z,18.77
2022-08-30T00:49:34.486Z,18.77
2022-08-30T00:52:03.251Z,18.87
2022-08-30T00:54:36.980Z,18.93
2022-08-30T00:57:05.918Z,18.87
2022-08-30T00:59:34.443Z,18.65
2022-08-30T01:02:03.249Z,18.63
2022-08-30T01:04:32.686Z,18.48
2022-08-30T01:07:01.010Z,18.39
2022-08-30T01:09:29.729Z,18.34
2022-08-30T01:11:58.735Z,18.25
2022-08-30T01:14:27.084Z,18.24
2022-08-30T01:16:57.616Z,18.27
2022-08-30T01:19:36.152Z,18.36
2022-08-30T01:22:11.518Z,18.44
2022-08-30T01:24:40.564Z,18.58
2022-08-30T01:27:08.241Z,18.64
2022-08-30T01:29:36.549Z,18.67
2022-08-30T01:32:06.965Z,18.78
2022-08-30T01:34:34.606Z,18.79
2022-08-30T01:37:02.582Z,18.83
2022-08-30T01:39:30.504Z,18.75
2022-08-30T01:41:59.840Z,18.84
2022-08-30T01:44:27.463Z,18.86
2022-08-30T01:46:55.280Z,18.87
2022-08-30T01:49:26.037Z,18.85
2022-08-30T01:52:00.490Z,18.83
2022-08-30T01:54:36.597Z,18.85
2022-08-30T01:57:09.826Z,18.86
2022-08-30T01:59:38.021Z,18.91
2022-08-30T02:02:07.290Z,19.01
2022-08-30T02:04:36.626Z,19.10
2022-08-30T02:07:04.866Z,19.03
2022-08-30T02:09:32.561Z,18.82
2022-08-30T02:12:00.219Z,18.71
2022-08-30T02:14:29.226Z,18.58
2022-08-30T02:16:56.809Z,18.46
2022-08-30T02:19:24.500Z,18.44
2022-08-30T02:21:52.436Z,18.43
2022-08-30T02:24:20.055Z,18.47
2022-08-30T02:26:48.542Z,18.36
2022-08-30T02:29:16.364Z,18.36
2022-08-30T02:31:45.324Z,18.29
2022-08-30T02:34:13.130Z,18.20
2022-08-30T02:36:41.731Z,18.10
2022-08-30T02:39:09.817Z,18.14
2022-08-30T02:41:38.181Z,18.11
2022-08-30T02:44:06.335Z,18.13
2022-08-30T02:46:34.755Z,18.13
2022-08-30T02:49:29.954Z,17.96
2022-08-30T02:51:52.897Z,17.99
2022-08-30T02:54:20.628Z,18.00
2022-08-30T02:56:48.532Z,18.06
2022-08-30T02:59:16.564Z,18.00
2022-08-30T03:01:44.331Z,17.87
2022-08-30T03:04:13.437Z,17.81
2022-08-30T03:06:41.074Z,17.86
2022-08-30T03:09:08.810Z,17.86
2022-08-30T03:11:37.527Z,17.95
2022-08-30T03:14:05.337Z,18.07
2022-08-30T03:16:33.071Z,18.08
2022-08-30T03:19:00.750Z,18.14
2022-08-30T03:21:29.792Z,18.09
2022-08-30T03:23:57.436Z,18.07
2022-08-30T03:26:25.061Z,18.06
2022-08-30T03:28:53.121Z,17.99
2022-08-30T03:31:20.869Z,18.05
2022-08-30T03:33:48.553Z,18.12
2022-08-30T03:36:16.143Z,18.10
2022-08-30T03:38:45.124Z,18.04
2022-08-30T03:41:12.760Z,18.00
2022-08-30T03:43:40.800Z,17.90
2022-08-30T03:46:12.039Z,17.83
2022-08-30T03:48:39.688Z,17.70
2022-08-30T03:51:07.577Z,17.55
2022-08-30T03:53:35.552Z,17.56
2022-08-30T03:56:05.158Z,17.61
2022-08-30T03:58:33.069Z,17.57
2022-08-30T04:01:00.931Z,17.58
2022-08-30T04:03:29.312Z,17.71
2022-08-30T04:05:57.607Z,17.83
2022-08-30T04:08:25.832Z,17.88
2022-08-30T04:10:54.313Z,17.80
2022-08-30T04:13:25.214Z,17.81
2022-08-30T04:15:52.927Z,17.91
2022-08-30T04:18:20.561Z,17.95
2022-08-30T04:20:48.327Z,17.97
2022-08-30T04:23:16.686Z,17.93
2022-08-30T04:25:44.585Z,18.02
2022-08-30T04:28:12.757Z,18.10
2022-08-30T04:30:43.089Z,17.99
2022-08-30T04:33:11.065Z,17.97
2022-08-30T04:35:43.044Z,18.00
2022-08-30T04:38:11.077Z,17.99
2022-08-30T04:40:38.857Z,18.06
2022-08-30T04:43:06.558Z,17.86
2022-08-30T04:45:34.290Z,17.86
2022-08-30T04:48:03.812Z,17.79
2022-08-30T04:50:31.548Z,17.66
2022-08-30T04:52:59.694Z,17.67
2022-08-30T04:55:28.116Z,17.76
2022-08-30T04:57:56.380Z,17.66
2022-08-30T05:00:24.132Z,17.54
2022-08-30T05:02:53.888Z,17.55
2022-08-30T05:05:41.713Z,17.60
2022-08-30T05:08:10.990Z,17.50
2022-08-30T05:10:40.569Z,17.45
2022-08-30T05:13:08.589Z,17.46
2022-08-30T05:15:37.241Z,17.48
2022-08-30T05:18:05.772Z,17.59
2022-08-30T05:20:35.349Z,17.65
2022-08-30T05:23:03.098Z,17.78
2022-08-30T05:25:34.398Z,17.70
2022-08-30T05:28:02.077Z,17.79
2022-08-30T05:30:32.938Z,17.85
2022-08-30T05:33:00.629Z,17.86
2022-08-30T05:35:28.294Z,17.92
2022-08-30T05:37:57.627Z,17.96
2022-08-30T05:40:26.018Z,18.08
2022-08-30T05:42:56.909Z,18.12
2022-08-30T05:45:24.859Z,18.25
2022-08-30T05:47:52.473Z,18.23
2022-08-30T05:50:20.361Z,18.21
2022-08-30T05:52:47.974Z,18.38
2022-08-30T05:55:18.898Z,18.52
2022-08-30T05:57:46.612Z,18.61
2022-08-30T06:00:17.543Z,18.56
2022-08-30T06:02:45.848Z,18.59
2022-08-30T06:05:14.410Z,18.82
2022-08-30T06:07:43.295Z,18.91
2022-08-30T06:10:12.222Z,18.90
2022-08-30T06:12:41.534Z,18.88
2022-08-30T06:15:10.126Z,18.83
2022-08-30T06:17:39.622Z,18.97
2022-08-30T06:20:08.970Z,18.94
2022-08-30T06:22:38.591Z,18.91
2022-08-30T06:25:06.998Z,18.92
2022-08-30T06:27:34.653Z,18.88
2022-08-30T06:30:04.170Z,18.93
2022-08-30T06:32:31.760Z,19.04
2022-08-30T06:34:59.534Z,19.13
2022-08-30T06:37:30.066Z,19.36
2022-08-30T06:39:58.465Z,19.49
2022-08-30T06:42:31.616Z,19.62
2022-08-30T06:44:59.341Z,19.75
2022-08-30T06:47:28.636Z,19.89
2022-08-30T06:49:56.380Z,19.93
2022-08-30T06:52:24.068Z,20.05
2022-08-30T06:54:51.845Z,20.28
2022-08-30T06:57:19.475Z,20.52
2022-08-30T06:59:47.126Z,20.63
2022-08-30T07:02:14.828Z,20.76
2022-08-30T07:04:43.897Z,20.77
2022-08-30T07:07:11.988Z,20.82
2022-08-30T07:09:43.093Z,20.87
2022-08-30T07:12:11.926Z,20.97
2022-08-30T07:14:40.713Z,21.05
2022-08-30T07:17:24.125Z,21.11
2022-08-30T07:19:53.338Z,21.20
2022-08-30T07:22:22.148Z,21.38
2022-08-30T07:24:50.153Z,21.53
2022-08-30T07:27:17.737Z,21.65
2022-08-30T07:29:45.536Z,21.78
2022-08-30T07:32:13.314Z,21.78
2022-08-30T07:34:41.619Z,21.83
2022-08-30T07:37:10.611Z,21.93
2022-08-30T07:39:48.015Z,22.07
2022-08-30T07:42:16.191Z,22.14
2022-08-30T07:44:43.846Z,22.31
2022-08-30T07:47:11.507Z,22.46
2022-08-30T07:49:39.363Z,22.62
2022-08-30T07:52:07.041Z,22.73
2022-08-30T07:54:36.088Z,22.86
2022-08-30T07:57:03.759Z,22.96
2022-08-30T07:59:34.193Z,23.10
2022-08-30T08:02:03.765Z,23.23
2022-08-30T08:04:31.564Z,23.40
2022-08-30T08:06:59.249Z,23.53
2022-08-30T08:09:26.818Z,23.68
2022-08-30T08:11:55.912Z,23.74
2022-08-30T08:14:24.206Z,23.82
2022-08-30T08:16:51.856Z,23.84
2022-08-30T08:19:19.603Z,23.91
2022-08-30T08:21:48.642Z,23.97
2022-08-30T08:24:18.045Z,24.14
2022-08-30T08:26:45.684Z,24.31
2022-08-30T08:29:14.644Z,24.37
2022-08-30T08:31:43.113Z,24.51
2022-08-30T08:34:11.619Z,24.67
2022-08-30T08:36:39.352Z,24.77
2022-08-30T08:39:08.913Z,24.91
2022-08-30T08:41:50.673Z,24.99
2022-08-30T08:44:34.731Z,25.06
2022-08-30T08:47:12.285Z,25.18
2022-08-30T08:49:44.772Z,25.25
2022-08-30T08:52:38.384Z,25.43
2022-08-30T08:55:10.477Z,25.56
2022-08-30T08:57:38.288Z,25.66
2022-08-30T09:00:09.031Z,25.80
2022-08-30T09:02:42.696Z,25.95
2022-08-30T09:05:14.393Z,26.05
2022-08-30T09:07:47.856Z,26.12
2022-08-30T09:10:18.313Z,26.27
2022-08-30T09:12:50.737Z,26.27
2022-08-30T09:15:23.884Z,26.19
2022-08-30T09:17:53.102Z,26.25
2022-08-30T09:20:30.361Z,26.36
2022-08-30T09:22:58.913Z,26.48
2022-08-30T09:25:29.916Z,26.63
2022-08-30T09:28:11.774Z,26.70
2022-08-30T09:30:41.336Z,26.73
2022-08-30T09:33:20.786Z,26.82
2022-08-30T09:35:52.041Z,26.96
2022-08-30T09:38:22.581Z,27.03
2022-08-30T09:40:52.129Z,27.19
2022-08-30T09:46:16.618Z,27.58
2022-08-30T09:48:45.837Z,27.58
2022-08-30T09:51:45.727Z,27.55
2022-08-30T09:54:20.686Z,27.66
2022-08-30T09:57:03.165Z,27.74
2022-08-30T09:59:42.223Z,27.80
2022-08-30T10:02:28.847Z,27.87
2022-08-30T10:05:06.528Z,27.94
2022-08-30T10:07:42.785Z,27.98
2022-08-30T10:10:17.336Z,28.18
2022-08-30T10:12:54.450Z,28.09
2022-08-30T10:15:30.789Z,28.13
2022-08-30T10:18:08.440Z,28.24
2022-08-30T10:20:42.732Z,28.23
2022-08-30T10:23:16.042Z,28.33
2022-08-30T10:25:49.954Z,28.54
2022-08-30T10:28:23.443Z,28.74
2022-08-30T10:30:57.146Z,28.97
2022-08-30T10:33:31.948Z,29.11
2022-08-30T10:36:04.401Z,29.26
2022-08-30T10:38:40.172Z,29.45
2022-08-30T10:41:17.077Z,29.54
2022-08-30T10:43:55.419Z,29.74
2022-08-30T10:46:30.571Z,29.96
2022-08-30T10:49:01.888Z,30.12
2022-08-30T10:51:33.686Z,30.18
2022-08-30T10:54:09.144Z,30.30
2022-08-30T10:56:42.137Z,30.48
2022-08-30T10:59:11.995Z,30.60
2022-08-30T11:02:09.865Z,30.66
2022-08-30T11:05:08.576Z,30.64
2022-08-30T11:07:45.015Z,30.64
2022-08-30T11:10:33.901Z,30.89
2022-08-30T11:13:04.916Z,31.04
2022-08-30T11:15:36.435Z,31.25
2022-08-30T11:18:12.536Z,31.41
2022-08-30T11:20:44.782Z,31.68
2022-08-30T11:23:27.293Z,31.84
2022-08-30T11:26:01.894Z,31.84
2022-08-30T11:29:03.473Z,32.27
2022-08-30T11:31:42.268Z,32.47
2022-08-30T11:34:11.388Z,32.32
2022-08-30T11:37:09.555Z,32.39
2022-08-30T11:39:54.035Z,32.61
2022-08-30T11:42:35.673Z,32.65
2022-08-30T11:45:36.935Z,32.72
2022-08-30T11:48:07.309Z,32.88
2022-08-30T11:50:43.388Z,32.86
2022-08-30T11:53:24.814Z,33.03
2022-08-30T11:56:08.502Z,32.99
2022-08-30T11:58:48.910Z,32.90
2022-08-30T12:01:41.933Z,32.64
2022-08-30T12:04:15.027Z,32.45
2022-08-30T12:06:56.868Z,32.15
2022-08-30T12:10:04.579Z,31.98
2022-08-30T12:12:53.057Z,31.72
2022-08-30T12:15:53.244Z,31.79
2022-08-30T12:18:28.222Z,31.80
2022-08-30T12:21:01.587Z,32.13
2022-08-30T12:23:34.865Z,32.48
2022-08-30T12:26:15.927Z,33.05
2022-08-30T12:28:48.723Z,33.30
2022-08-30T12:31:19.706Z,33.87
2022-08-30T12:33:50.766Z,34.32
2022-08-30T12:36:35.241Z,34.63
2022-08-30T12:39:07.861Z,35.13
2022-08-30T12:41:35.728Z,35.73
2022-08-30T12:44:17.333Z,36.03
2022-08-30T12:46:48.280Z,36.68
2022-08-30T12:49:19.257Z,37.23
2022-08-30T12:51:47.673Z,37.38
2022-08-30T12:54:20.121Z,37.71
2022-08-30T12:57:19.056Z,38.33
2022-08-30T12:59:58.530Z,38.72
2022-08-30T13:02:29.898Z,38.17
2022-08-30T13:04:58.411Z,38.89
2022-08-30T13:07:32.901Z,39.52
2022-08-30T13:10:13.808Z,40.13
2022-08-30T13:12:41.674Z,40.76
2022-08-30T13:15:17.848Z,41.31
2022-08-30T13:17:46.720Z,42.03
2022-08-30T13:20:27.239Z,42.00
2022-08-30T13:23:03.753Z,42.57
2022-08-30T13:25:32.953Z,42.40
2022-08-30T13:28:01.877Z,43.01
2022-08-30T13:30:32.049Z,42.83
2022-08-30T13:33:01.189Z,42.98
2022-08-30T13:35:31.090Z,43.51
2022-08-30T13:38:01.691Z,43.82
2022-08-30T13:40:29.503Z,44.32
2022-08-30T13:42:58.788Z,45.10
2022-08-30T13:45:42.569Z,45.36
2022-08-30T13:48:13.635Z,45.56
2022-08-30T13:50:42.877Z,45.80
2022-08-30T13:53:11.174Z,44.67
2022-08-30T13:55:40.702Z,45.14
2022-08-30T13:58:08.449Z,45.97
2022-08-30T14:00:40.574Z,46.63
2022-08-30T14:03:08.275Z,47.00
2022-08-30T14:06:15.739Z,47.01
2022-08-30T14:08:48.798Z,47.06
2022-08-30T14:11:21.170Z,46.94
2022-08-30T14:16:41.349Z,47.01
2022-08-30T14:19:10.121Z,46.40
2022-08-30T14:21:40.457Z,46.40
2022-08-30T14:24:08.857Z,46.02
2022-08-30T14:26:39.431Z,46.33
2022-08-30T14:29:09.481Z,47.06
2022-08-30T14:31:38.282Z,47.45
2022-08-30T14:34:07.247Z,47.24
2022-08-30T14:36:36.499Z,47.17
2022-08-30T14:39:08.607Z,46.01
2022-08-30T14:41:40.125Z,45.53
2022-08-30T14:44:11.044Z,45.98
2022-08-30T14:46:38.784Z,46.01
2022-08-30T14:49:08.153Z,45.97
2022-08-30T14:51:39.256Z,46.37
2022-08-30T14:54:09.209Z,47.39
2022-08-30T14:56:39.050Z,47.69
2022-08-30T14:59:07.448Z,47.05
2022-08-30T15:01:37.307Z,47.27
2022-08-30T15:04:07.386Z,45.56
2022-08-30T15:06:36.771Z,45.85
2022-08-30T15:09:05.785Z,45.55
2022-08-30T15:11:35.646Z,45.93
2022-08-30T15:14:03.296Z,44.41
2022-08-30T15:16:34.787Z,44.11
2022-08-30T15:19:03.364Z,44.77
2022-08-30T15:21:33.656Z,45.02
2022-08-30T15:24:02.688Z,45.39
2022-08-30T15:26:30.637Z,45.46
2022-08-30T15:28:59.700Z,46.08
2022-08-30T15:31:29.104Z,46.07
2022-08-30T15:33:56.809Z,45.29
2022-08-30T15:36:24.754Z,44.44
2022-08-30T15:38:55.245Z,43.81
2022-08-30T15:41:23.911Z,43.78
2022-08-30T15:43:52.734Z,43.39
2022-08-30T15:46:24.033Z,43.76
2022-08-30T15:49:01.515Z,44.40
2022-08-30T15:51:30.805Z,44.50
2022-08-30T15:54:09.418Z,43.72
2022-08-30T15:56:40.140Z,42.48
2022-08-30T15:59:10.742Z,41.42
2022-08-30T16:01:39.811Z,40.26
2022-08-30T16:04:08.118Z,39.27
2022-08-30T16:06:37.541Z,38.22
2022-08-30T16:09:05.787Z,37.63
2022-08-30T16:11:34.074Z,36.85
2022-08-30T16:14:02.461Z,36.54
2022-08-30T16:16:31.873Z,37.42
2022-08-30T16:19:01.031Z,38.43
2022-08-30T16:21:30.495Z,39.07
2022-08-30T16:24:00.762Z,39.12
2022-08-30T16:26:30.286Z,38.57
2022-08-30T16:28:58.728Z,37.73
2022-08-30T16:31:28.550Z,37.07
2022-08-30T16:33:57.342Z,36.44
2022-08-30T16:36:33.013Z,35.92
2022-08-30T16:39:01.489Z,35.44
2022-08-30T16:41:29.344Z,34.89
2022-08-30T16:44:00.717Z,34.53
2022-08-30T16:46:28.885Z,34.28
2022-08-30T16:48:58.391Z,34.50
2022-08-30T16:51:29.024Z,34.90
2022-08-30T16:53:58.869Z,34.84
2022-08-30T16:56:29.517Z,34.44
2022-08-30T16:59:02.957Z,34.07
2022-08-30T17:01:34.671Z,33.88
2022-08-30T17:04:05.912Z,33.53
2022-08-30T17:06:33.721Z,33.18
2022-08-30T17:09:05.979Z,32.95
2022-08-30T17:11:33.824Z,32.61
2022-08-30T17:14:01.717Z,32.32
2022-08-30T17:16:30.683Z,32.04
2022-08-30T17:21:47.057Z,31.50
2022-08-30T17:24:16.039Z,31.26
2022-08-30T17:26:44.564Z,31.07
2022-08-30T17:29:12.892Z,30.86
2022-08-30T17:31:46.271Z,30.58
2022-08-30T17:34:21.050Z,30.33
2022-08-30T17:36:51.042Z,30.11
2022-08-30T17:39:20.067Z,29.89
2022-08-30T17:41:50.057Z,29.78
2022-08-30T17:44:19.066Z,29.67
2022-08-30T17:46:46.901Z,29.48
2022-08-30T17:49:15.086Z,29.31
2022-08-30T17:51:43.443Z,29.08
2022-08-30T17:54:12.674Z,28.89
2022-08-30T17:56:42.232Z,28.76
2022-08-30T17:59:11.448Z,28.64
2022-08-30T18:01:41.696Z,28.41
2022-08-30T18:04:10.656Z,28.29
2022-08-30T18:06:38.406Z,28.17
2022-08-30T18:09:09.072Z,28.05
2022-08-30T18:11:39.474Z,27.94
2022-08-30T18:14:10.840Z,27.83
2022-08-30T18:16:47.442Z,27.69
2022-08-30T18:19:21.400Z,27.56
2022-08-30T18:21:49.012Z,27.45
2022-08-30T18:24:16.954Z,27.35
2022-08-30T18:26:44.837Z,27.25
2022-08-30T18:29:14.203Z,27.12
2022-08-30T18:31:41.932Z,27.08
2022-08-30T18:34:12.512Z,26.93
2022-08-30T18:36:40.341Z,26.84
2022-08-30T18:39:09.137Z,26.74
2022-08-30T18:41:42.155Z,26.65
2022-08-30T18:44:27.223Z,26.60
2022-08-30T18:47:00.426Z,26.52
2022-08-30T18:49:28.610Z,26.45
2022-08-30T18:51:56.379Z,26.41
2022-08-30T18:54:24.388Z,26.29
2022-08-30T18:56:52.023Z,26.22
2022-08-30T18:59:20.347Z,26.13
2022-08-30T19:01:48.822Z,26.08
2022-08-30T19:04:22.349Z,25.99
2022-08-30T19:06:58.175Z,25.91
2022-08-30T19:09:27.129Z,25.81
2022-08-30T19:11:55.705Z,25.72
2022-08-30T19:14:23.426Z,25.67
2022-08-30T19:16:56.213Z,25.61
2022-08-30T19:19:25.552Z,25.51
2022-08-30T19:21:53.279Z,25.43
2022-08-30T19:24:21.921Z,25.26
2022-08-30T19:26:49.781Z,25.14
2022-08-30T19:29:17.488Z,25.07
2022-08-30T19:31:45.109Z,24.99
2022-08-30T19:34:13.483Z,24.92
2022-08-30T19:36:42.422Z,24.83
2022-08-30T19:39:12.695Z,24.73
2022-08-30T19:41:40.721Z,24.70
2022-08-30T19:44:08.375Z,24.61
2022-08-30T19:46:37.528Z,24.56
2022-08-30T19:49:08.399Z,24.54
2022-08-30T19:51:37.090Z,24.41
2022-08-30T19:54:07.080Z,24.36
2022-08-30T19:56:35.768Z,24.30
2022-08-30T19:59:03.908Z,24.23
2022-08-30T20:01:33.608Z,24.17
2022-08-30T20:04:02.570Z,24.12
2022-08-30T20:06:30.988Z,24.08
2022-08-30T20:09:00.489Z,24.05
2022-08-30T20:11:29.814Z,23.93
2022-08-30T20:13:58.620Z,23.89
2022-08-30T20:19:16.996Z,23.77
2022-08-30T20:21:47.029Z,23.68
2022-08-30T20:24:17.682Z,23.63
2022-08-30T20:24:25.138Z,31.83
2022-08-30T20:26:46.658Z,23.60
2022-08-30T20:29:14.322Z,23.55
2022-08-30T20:31:41.927Z,23.53
2022-08-30T20:34:09.703Z,23.47
2022-08-30T20:36:39.722Z,23.43
2022-08-30T20:39:09.583Z,23.38
2022-08-30T20:41:38.185Z,23.33
2022-08-30T20:44:11.989Z,23.32
2022-08-30T20:46:43.760Z,23.27
2022-08-30T20:49:12.125Z,23.23
2022-08-30T20:51:39.753Z,23.18
2022-08-30T20:54:08.844Z,23.15
2022-08-30T20:56:36.838Z,23.14
2022-08-30T20:59:05.788Z,23.11
2022-08-30T21:01:38.345Z,23.07
2022-08-30T21:04:06.778Z,23.02
2022-08-30T21:06:37.354Z,22.97
2022-08-30T21:09:06.476Z,22.93
2022-08-30T21:11:34.645Z,22.86
2022-08-30T21:14:02.878Z,22.81
2022-08-30T21:16:32.023Z,22.78
2022-08-30T21:19:01.751Z,22.78
2022-08-30T21:21:30.402Z,22.76
2022-08-30T21:24:00.414Z,22.73
2022-08-30T21:26:28.740Z,22.70
2022-08-30T21:28:57.465Z,22.67
2022-08-30T21:31:27.203Z,22.66
2022-08-30T21:33:56.131Z,22.65
2022-08-30T21:36:44.581Z,22.64
2022-08-30T21:39:15.380Z,22.59
2022-08-30T21:41:43.878Z,22.59
2022-08-30T21:44:14.846Z,22.58
2022-08-30T21:46:43.292Z,22.55
2022-08-30T21:49:12.649Z,22.56
2022-08-30T21:51:44.260Z,22.57
2022-08-30T21:54:13.941Z,22.54
2022-08-30T21:56:43.461Z,22.50
2022-08-30T21:59:12.519Z,22.49
2022-08-30T22:01:43.023Z,22.49
2022-08-30T22:04:11.878Z,22.52
2022-08-30T22:06:45.107Z,22.53
2022-08-30T22:09:14.376Z,22.51
2022-08-30T22:11:43.075Z,22.47
2022-08-30T22:14:14.524Z,22.48
2022-08-30T22:16:44.464Z,22.49
2022-08-30T22:19:12.641Z,22.50
2022-08-30T22:21:42.734Z,22.53
2022-08-30T22:24:10.953Z,22.59
2022-08-30T22:26:39.462Z,22.55
2022-08-30T22:29:08.914Z,22.54
2022-08-30T22:31:41.291Z,22.51
2022-08-30T22:34:10.932Z,22.54
2022-08-30T22:36:39.459Z,22.54
2022-08-30T22:39:09.778Z,22.54
2022-08-30T22:41:38.063Z,22.55
2022-08-30T22:44:06.316Z,22.54
2022-08-30T22:46:36.506Z,22.53
2022-08-30T22:49:05.585Z,22.53
2022-08-30T22:51:33.654Z,22.50
2022-08-30T22:54:01.808Z,22.51
2022-08-30T22:56:31.940Z,22.51
2022-08-30T22:58:59.587Z,22.51
2022-08-30T23:01:30.369Z,22.46
2022-08-30T23:03:58.905Z,22.35
2022-08-30T23:06:26.705Z,22.41
2022-08-30T23:08:55.419Z,22.49
2022-08-30T23:11:24.401Z,22.67
2022-08-30T23:13:56.728Z,22.75
2022-08-30T23:16:25.715Z,22.43
2022-08-30T23:18:53.471Z,22.13
2022-08-30T23:21:23.289Z,21.87
2022-08-30T23:24:09.789Z,21.38
2022-08-30T23:26:55.024Z,21.00
2022-08-30T23:29:42.188Z,20.81
2022-08-30T23:32:27.692Z,20.87
2022-08-30T23:35:12.789Z,20.68
2022-08-30T23:37:58.314Z,20.71
2022-08-30T23:40:43.878Z,20.73
2022-08-30T23:43:29.416Z,20.61
2022-08-30T23:46:19.579Z,20.72
2022-08-30T23:49:05.558Z,20.78
2022-08-30T23:51:50.843Z,20.89
2022-08-30T23:54:36.237Z,21.01
2022-08-30T23:57:21.676Z,20.99
